Solovki, Russia
Current Conditions -  °F | °C
As of 4:30 PM on Friday 31 Oct 2014 (Local Time) from ULAA Reporting Station
Snow Showers Snow Showers  
Wind Chill: 24°   Ceiling: 6000
Heat Index: 30°   Visibility: 3mi
Dew Point: 30°   Wind: 7mph
Humidity: 100%   Direction: 340°NNW
Pressure: 29.83"   Gusts: NA
Location:  65.2°N, 35.3°E
Report Text: ULAA 311330Z 34003MPS 300V010 5000 -SHSN BKN060CB M01/M01 Q1010 TEMPO 1000 SHSN BKN003CB RMK QFE756/1008 SC034
Loading
Personal Weather Stations






























Interactive Weather Map
Tropical Storm Tracking
New forecast layout! Learn more

10-Day Weather Forecast

Advertisements
Track Severe Weather on mobile